Moorefield, Nebraska
Current Conditions -  °F | °C
As of 4:55 PM on Thursday 18 Dec 2014 (Local Time) from KLXN Reporting Station
Overcast Overcast  
Wind Chill: 30°   Ceiling: 900
Heat Index: 30°   Visibility: 10mi
Dew Point: 27°   Wind: 3mph
Humidity: 88%   Direction: 230°SW
Pressure: 30.11"   Gusts: NA
Location:  40.69°N, 100.4°W
Report Text: KLXN 182255Z AUTO 23003KT 10SM OVC009 M01/M03 A3011 RMK AO2 T10101027
Loading
Personal Weather Stations






























Interactive Weather Map New forecast layout! Learn more

10-Day Weather Forecast

Advertisements
Track Severe Weather on mobile